TimePST,TemperatureF,Dew PointF,Humidity,Sea Level PressureIn,VisibilityMPH,Wind Direction,Wind SpeedMPH,Gust SpeedMPH,PrecipitationIn,Events,Conditions,WindDirDegrees,DateUTC
12:53 AM,54.0,45.0,72,29.87,10.0,Calm,Calm,-,N/A,,Clear,0,2013-11-03 07:53:00
1:53 AM,54.0,46.0,75,29.87,10.0,Calm,Calm,-,N/A,,Clear,0,2013-11-03 08:53:00
1:53 AM,53.1,44.1,71,29.87,10.0,Calm,Calm,-,N/A,,Clear,0,2013-11-03 09:53:00
2:53 AM,52.0,46.0,80,29.87,10.0,Calm,Calm,-,N/A,,Scattered Clouds,0,2013-11-03 10:53:00
3:03 AM,53.6,46.4,77,29.91,10.0,Calm,Calm,-,N/A,,Mostly Cloudy,0,2013-11-03 11:03:00
3:20 AM,55.4,48.2,77,29.91,8.0,Calm,Calm,-,N/A,,Overcast,0,2013-11-03 11:20:00
3:48 AM,53.6,48.2,82,29.90,6.0,Calm,Calm,-,N/A,,Haze,0,2013-11-03 11:48:00
3:53 AM,54.0,48.0,80,29.86,7.0,Calm,Calm,-,N/A,,Overcast,0,2013-11-03 11:53:00
4:42 AM,53.6,51.8,94,29.91,2.0,Calm,Calm,-,N/A,,Overcast,0,2013-11-03 12:42:00
4:53 AM,54.0,52.0,93,29.87,2.0,Calm,Calm,-,N/A,,Overcast,0,2013-11-03 12:53:00
5:13 AM,53.6,51.8,94,29.90,1.2,Calm,Calm,-,N/A,,Overcast,0,2013-11-03 13:13:00
5:33 AM,53.6,51.8,94,29.90,2.0,Calm,Calm,-,N/A,,Overcast,0,2013-11-03 13:33:00
5:48 AM,55.4,51.8,88,29.91,4.0,Calm,Calm,-,N/A,,Overcast,0,2013-11-03 13:48:00
5:53 AM,54.0,52.0,93,29.88,4.0,NNE,3.5,-,N/A,,Overcast,30,2013-11-03 13:53:00
6:53 AM,54.0,50.0,86,29.90,4.0,Calm,Calm,-,N/A,,Overcast,0,2013-11-03 14:53:00
7:13 AM,53.6,51.8,94,29.94,2.5,Calm,Calm,-,N/A,,Overcast,0,2013-11-03 15:13:00
7:20 AM,53.6,51.8,94,29.93,3.0,Calm,Calm,-,N/A,,Overcast,0,2013-11-03 15:20:00
7:37 AM,55.4,51.8,88,29.94,3.0,Calm,Calm,-,N/A,,Overcast,0,2013-11-03 15:37:00
7:44 AM,55.4,51.8,88,29.94,2.5,Calm,Calm,-,N/A,,Overcast,0,2013-11-03 15:44:00
7:53 AM,55.0,51.1,86,29.91,3.0,NNE,3.5,-,N/A,,Overcast,30,2013-11-03 15:53:00
8:17 AM,55.4,48.2,77,29.95,5.0,East,3.5,-,N/A,,Haze,80,2013-11-03 16:17:00
8:53 AM,55.0,50.0,83,29.92,5.0,Calm,Calm,-,N/A,,Haze,0,2013-11-03 16:53:00
9:44 AM,55.4,50.0,82,29.94,6.0,East,3.5,-,N/A,,Haze,100,2013-11-03 17:44:00
9:53 AM,57.0,50.0,77,29.91,5.0,Calm,Calm,-,N/A,,Haze,0,2013-11-03 17:53:00
10:51 AM,60.8,50.0,68,29.93,6.0,Calm,Calm,-,N/A,,Haze,0,2013-11-03 18:51:00
10:53 AM,60.1,50.0,69,29.90,6.0,Calm,Calm,-,N/A,,Haze,0,2013-11-03 18:53:00
11:53 AM,64.9,48.0,54,29.87,9.0,NW,3.5,-,N/A,,Clear,310,2013-11-03 19:53:00
12:53 PM,68.0,46.0,45,29.83,10.0,Variable,3.5,-,N/A,,Clear,0,2013-11-03 20:53:00
1:53 PM,69.1,48.9,49,29.81,10.0,Calm,Calm,-,N/A,,Clear,0,2013-11-03 21:53:00
2:53 PM,70.0,48.0,46,29.80,10.0,WSW,3.5,-,N/A,,Clear,250,2013-11-03 22:53:00
3:53 PM,69.1,50.0,51,29.78,10.0,West,8.1,-,N/A,,Clear,270,2013-11-03 23:53:00
4:53 PM,64.9,52.0,63,29.78,10.0,West,8.1,-,N/A,,Clear,270,2013-11-04 00:53:00
5:53 PM,62.1,52.0,70,29.80,10.0,WNW,6.9,-,N/A,,Clear,290,2013-11-04 01:53:00
6:53 PM,60.1,51.1,72,29.83,10.0,West,5.8,-,N/A,,Clear,270,2013-11-04 02:53:00
7:53 PM,57.9,51.1,78,29.83,10.0,Calm,Calm,-,N/A,,Clear,0,2013-11-04 03:53:00
8:53 PM,57.9,51.1,78,29.83,10.0,Calm,Calm,-,N/A,,Clear,0,2013-11-04 04:53:00
9:21 PM,57.2,51.8,82,29.86,10.0,Calm,Calm,-,N/A,,Mostly Cloudy,0,2013-11-04 05:21:00
9:53 PM,57.0,51.1,81,29.82,9.0,Calm,Calm,-,N/A,,Overcast,0,2013-11-04 05:53:00
10:53 PM,59.0,51.1,75,29.82,10.0,Calm,Calm,-,N/A,,Overcast,0,2013-11-04 06:53:00